createdAt,value
2022-07-26T00:00:12.834Z,23.18
2022-07-26T00:02:47.695Z,23.21
2022-07-26T00:07:42.019Z,23.16
2022-07-26T00:10:09.136Z,23.14
2022-07-26T00:12:36.044Z,23.06
2022-07-26T00:15:04.090Z,23.09
2022-07-26T00:17:30.705Z,23.05
2022-07-26T00:19:57.341Z,22.98
2022-07-26T00:22:35.932Z,22.97
2022-07-26T00:25:07.499Z,22.96
2022-07-26T00:27:37.433Z,22.92
2022-07-26T00:30:06.268Z,22.90
2022-07-26T00:32:32.995Z,22.87
2022-07-26T00:34:59.600Z,22.84
2022-07-26T00:37:26.278Z,22.81
2022-07-26T00:39:52.886Z,22.74
2022-07-26T00:42:19.510Z,22.74
2022-07-26T00:44:46.314Z,22.69
2022-07-26T00:47:13.976Z,22.70
2022-07-26T00:49:41.578Z,22.66
2022-07-26T00:52:09.539Z,22.66
2022-07-26T00:54:37.387Z,22.65
2022-07-26T00:57:05.003Z,22.63
2022-07-26T00:59:31.699Z,22.54
2022-07-26T01:01:58.762Z,22.49
2022-07-26T01:04:25.786Z,22.44
2022-07-26T01:06:53.455Z,22.41
2022-07-26T01:09:20.164Z,22.41
2022-07-26T01:11:46.866Z,22.42
2022-07-26T01:14:13.521Z,22.41
2022-07-26T01:16:40.410Z,22.35
2022-07-26T01:19:07.066Z,22.28
2022-07-26T01:21:34.110Z,22.24
2022-07-26T01:24:01.193Z,22.17
2022-07-26T01:26:28.436Z,22.11
2022-07-26T01:28:55.064Z,22.10
2022-07-26T01:31:22.103Z,22.05
2022-07-26T01:33:50.437Z,22.02
2022-07-26T01:36:17.732Z,22.01
2022-07-26T01:38:44.422Z,22.00
2022-07-26T01:41:12.135Z,21.96
2022-07-26T01:43:39.232Z,21.88
2022-07-26T01:46:10.102Z,21.81
2022-07-26T01:48:37.118Z,21.73
2022-07-26T01:51:04.007Z,21.73
2022-07-26T01:53:30.692Z,21.76
2022-07-26T01:55:57.720Z,21.78
2022-07-26T01:58:24.815Z,21.77
2022-07-26T02:00:51.559Z,21.80
2022-07-26T02:03:18.544Z,21.81
2022-07-26T02:05:45.559Z,21.82
2022-07-26T02:08:12.221Z,21.81
2022-07-26T02:10:58.379Z,21.69
2022-07-26T02:13:25.171Z,21.76
2022-07-26T02:15:51.990Z,21.77
2022-07-26T02:18:18.732Z,21.75
2022-07-26T02:20:45.416Z,21.73
2022-07-26T02:23:12.339Z,21.70
2022-07-26T02:25:39.068Z,21.72
2022-07-26T02:28:05.710Z,21.69
2022-07-26T02:30:32.402Z,21.67
2022-07-26T02:33:00.320Z,21.66
2022-07-26T02:35:27.270Z,21.63
2022-07-26T02:37:53.856Z,21.63
2022-07-26T02:40:20.472Z,21.59
2022-07-26T02:42:47.149Z,21.58
2022-07-26T02:45:13.750Z,21.58
2022-07-26T02:47:48.571Z,21.59
2022-07-26T02:50:19.453Z,21.50
2022-07-26T02:52:49.765Z,21.54
2022-07-26T02:55:17.791Z,21.50
2022-07-26T02:57:46.388Z,21.46
2022-07-26T03:00:20.098Z,21.40
2022-07-26T03:02:49.090Z,21.34
2022-07-26T03:05:16.774Z,21.28
2022-07-26T03:07:43.365Z,21.21
2022-07-26T03:10:10.233Z,21.17
2022-07-26T03:12:36.882Z,21.13
2022-07-26T03:15:04.015Z,21.01
2022-07-26T03:17:30.598Z,20.93
2022-07-26T03:19:59.216Z,20.88
2022-07-26T03:22:25.887Z,20.84
2022-07-26T03:24:52.493Z,20.83
2022-07-26T03:27:19.124Z,20.82
2022-07-26T03:29:45.761Z,20.75
2022-07-26T03:32:12.401Z,20.78
2022-07-26T03:34:39.001Z,20.75
2022-07-26T03:37:05.620Z,20.73
2022-07-26T03:39:32.300Z,20.69
2022-07-26T03:41:58.946Z,20.62
2022-07-26T03:44:25.536Z,20.59
2022-07-26T03:46:52.201Z,20.56
2022-07-26T03:49:19.048Z,20.54
2022-07-26T03:51:45.717Z,20.44
2022-07-26T03:54:12.628Z,20.46
2022-07-26T03:56:40.468Z,20.43
2022-07-26T03:59:09.041Z,20.41
2022-07-26T04:01:37.370Z,20.42
2022-07-26T04:04:04.576Z,20.44
2022-07-26T04:06:31.517Z,20.41
2022-07-26T04:08:58.210Z,20.45
2022-07-26T04:11:26.537Z,20.45
2022-07-26T04:13:54.988Z,20.49
2022-07-26T04:16:21.570Z,20.51
2022-07-26T04:18:48.255Z,20.51
2022-07-26T04:21:14.964Z,20.61
2022-07-26T04:23:41.758Z,20.67
2022-07-26T04:26:08.478Z,20.66
2022-07-26T04:28:35.131Z,20.71
2022-07-26T04:31:01.841Z,20.72
2022-07-26T04:33:28.513Z,20.70
2022-07-26T04:35:55.288Z,20.65
2022-07-26T04:38:22.249Z,20.61
2022-07-26T04:40:50.921Z,20.61
2022-07-26T04:43:18.287Z,20.60
2022-07-26T04:45:48.449Z,20.61
2022-07-26T04:48:15.911Z,20.63
2022-07-26T04:50:43.569Z,20.63
2022-07-26T04:53:11.173Z,20.61
2022-07-26T04:55:38.585Z,20.63
2022-07-26T04:58:05.649Z,20.55
2022-07-26T05:00:32.481Z,20.54
2022-07-26T05:03:00.667Z,20.57
2022-07-26T05:05:29.774Z,20.58
2022-07-26T05:08:00.629Z,20.49
2022-07-26T05:10:35.287Z,20.43
2022-07-26T05:13:06.430Z,20.34
2022-07-26T05:15:35.089Z,20.24
2022-07-26T05:18:07.071Z,20.19
2022-07-26T05:20:34.890Z,20.21
2022-07-26T05:23:01.624Z,20.23
2022-07-26T05:25:28.360Z,20.25
2022-07-26T05:27:54.999Z,20.22
2022-07-26T05:30:21.749Z,20.22
2022-07-26T05:32:48.392Z,20.24
2022-07-26T05:35:15.130Z,20.25
2022-07-26T05:37:41.809Z,20.36
2022-07-26T05:40:09.286Z,20.39
2022-07-26T05:42:36.158Z,20.42
2022-07-26T05:45:03.883Z,20.44
2022-07-26T05:47:30.560Z,20.44
2022-07-26T05:49:57.362Z,20.43
2022-07-26T05:52:24.029Z,20.41
2022-07-26T05:54:50.706Z,20.39
2022-07-26T05:57:17.376Z,20.39
2022-07-26T05:59:43.996Z,20.47
2022-07-26T06:02:10.671Z,20.53
2022-07-26T06:04:37.348Z,20.55
2022-07-26T06:07:04.019Z,20.53
2022-07-26T06:09:30.659Z,20.63
2022-07-26T06:11:57.287Z,20.83
2022-07-26T06:14:24.649Z,21.08
2022-07-26T06:16:51.407Z,21.29
2022-07-26T06:19:18.078Z,21.42
2022-07-26T06:21:46.111Z,21.39
2022-07-26T06:24:13.113Z,21.42
2022-07-26T06:26:39.964Z,21.41
2022-07-26T06:29:06.619Z,21.43
2022-07-26T06:31:33.856Z,21.45
2022-07-26T06:34:00.510Z,21.53
2022-07-26T06:36:30.544Z,21.56
2022-07-26T06:38:58.013Z,21.54
2022-07-26T06:41:24.654Z,21.62
2022-07-26T06:43:51.241Z,21.56
2022-07-26T06:46:19.446Z,21.49
2022-07-26T06:48:47.560Z,21.54
2022-07-26T06:51:19.557Z,21.62
2022-07-26T06:53:46.128Z,21.73
2022-07-26T06:56:14.904Z,21.77
2022-07-26T06:58:42.554Z,21.66
2022-07-26T07:01:09.575Z,21.57
2022-07-26T07:03:36.276Z,21.51
2022-07-26T07:06:03.240Z,21.54
2022-07-26T07:08:29.866Z,21.56
2022-07-26T07:10:56.770Z,21.65
2022-07-26T07:13:23.730Z,21.80
2022-07-26T07:15:50.359Z,21.93
2022-07-26T07:18:17.169Z,22.12
2022-07-26T07:20:43.763Z,22.21
2022-07-26T07:23:10.362Z,22.17
2022-07-26T07:25:36.996Z,22.05
2022-07-26T07:28:04.155Z,21.98
2022-07-26T07:30:31.009Z,21.96
2022-07-26T07:32:57.699Z,21.99
2022-07-26T07:35:24.322Z,21.92
2022-07-26T07:37:58.425Z,21.86
2022-07-26T07:40:25.214Z,21.84
2022-07-26T07:42:52.616Z,21.90
2022-07-26T07:45:19.266Z,21.87
2022-07-26T07:47:45.933Z,21.88
2022-07-26T07:50:12.618Z,21.96
2022-07-26T07:52:39.220Z,22.17
2022-07-26T07:55:36.915Z,22.47
2022-07-26T07:57:54.476Z,22.70
2022-07-26T08:00:27.216Z,22.85
2022-07-26T08:02:54.951Z,22.95
2022-07-26T08:05:21.749Z,22.86
2022-07-26T08:07:49.541Z,22.76
2022-07-26T08:10:19.187Z,22.68
2022-07-26T08:12:45.817Z,22.58
2022-07-26T08:15:18.000Z,22.56
2022-07-26T08:17:51.049Z,22.53
2022-07-26T08:20:20.730Z,22.51
2022-07-26T08:22:50.909Z,22.40
2022-07-26T08:25:17.643Z,22.22
2022-07-26T08:27:55.072Z,22.08
2022-07-26T08:30:29.555Z,22.37
2022-07-26T08:32:56.189Z,22.71
2022-07-26T08:35:22.930Z,22.78
2022-07-26T08:37:49.593Z,22.79
2022-07-26T08:40:16.515Z,22.67
2022-07-26T08:42:54.398Z,22.80
2022-07-26T08:45:23.219Z,23.04
2022-07-26T08:48:15.002Z,23.22
2022-07-26T08:50:37.195Z,23.47
2022-07-26T08:53:09.148Z,23.47
2022-07-26T08:56:04.373Z,23.44
2022-07-26T08:58:23.269Z,23.53
2022-07-26T09:01:06.922Z,23.56
2022-07-26T09:03:33.952Z,23.76
2022-07-26T09:06:15.534Z,23.85
2022-07-26T09:08:42.776Z,23.56
2022-07-26T09:11:24.376Z,23.19
2022-07-26T09:14:02.849Z,23.30
2022-07-26T09:16:30.856Z,23.50
2022-07-26T09:19:18.993Z,23.67
2022-07-26T09:21:46.668Z,23.92
2022-07-26T09:24:13.998Z,24.16
2022-07-26T09:26:40.696Z,24.32
2022-07-26T09:29:12.772Z,24.54
2022-07-26T09:31:40.357Z,24.64
2022-07-26T09:34:08.173Z,24.74
2022-07-26T09:36:51.118Z,24.90
2022-07-26T09:39:17.799Z,24.59
2022-07-26T09:42:25.090Z,24.38
2022-07-26T09:44:48.177Z,24.67
2022-07-26T09:47:14.994Z,25.00
2022-07-26T09:49:42.331Z,25.18
2022-07-26T09:52:35.377Z,25.21
2022-07-26T09:55:06.390Z,25.00
2022-07-26T09:57:35.215Z,25.01
2022-07-26T10:00:05.649Z,25.10
2022-07-26T10:02:33.206Z,25.17
2022-07-26T10:04:59.841Z,25.34
2022-07-26T10:07:26.612Z,25.50
2022-07-26T10:09:59.459Z,25.61
2022-07-26T10:12:31.261Z,25.63
2022-07-26T10:14:58.107Z,25.71
2022-07-26T10:17:35.238Z,25.74
2022-07-26T10:20:16.840Z,25.84
2022-07-26T10:22:50.632Z,25.74
2022-07-26T10:25:17.377Z,25.84
2022-07-26T10:27:45.502Z,25.88
2022-07-26T10:30:18.353Z,26.02
2022-07-26T10:32:51.370Z,26.15
2022-07-26T10:35:45.021Z,26.14
2022-07-26T10:38:22.132Z,26.19
2022-07-26T10:41:07.605Z,26.42
2022-07-26T10:43:42.835Z,26.60
2022-07-26T10:46:15.555Z,26.60
2022-07-26T10:49:06.374Z,26.78
2022-07-26T10:51:34.514Z,26.91
2022-07-26T10:54:09.417Z,26.63
2022-07-26T10:56:37.760Z,26.52
2022-07-26T10:59:05.991Z,26.29
2022-07-26T11:01:41.005Z,26.21
2022-07-26T11:04:27.992Z,26.40
2022-07-26T11:07:00.630Z,26.43
2022-07-26T11:09:34.500Z,26.67
2022-07-26T11:12:21.609Z,26.97
2022-07-26T11:14:48.873Z,27.10
2022-07-26T11:17:30.699Z,27.17
2022-07-26T11:19:57.994Z,27.42
2022-07-26T11:22:35.371Z,27.47
2022-07-26T11:25:03.191Z,27.45
2022-07-26T11:27:29.782Z,27.61
2022-07-26T11:30:04.712Z,27.50
2022-07-26T11:32:32.075Z,27.52
2022-07-26T11:35:01.094Z,27.77
2022-07-26T11:37:28.489Z,27.95
2022-07-26T11:39:55.273Z,28.21
2022-07-26T11:42:22.381Z,28.32
2022-07-26T11:44:50.706Z,27.85
2022-07-26T11:47:20.396Z,27.29
2022-07-26T11:50:01.074Z,26.78
2022-07-26T11:52:35.234Z,26.30
2022-07-26T11:55:01.872Z,26.47
2022-07-26T11:57:31.053Z,27.04
2022-07-26T12:00:00.646Z,27.26
2022-07-26T12:02:38.354Z,27.77
2022-07-26T12:05:23.275Z,27.81
2022-07-26T12:08:04.222Z,27.94
2022-07-26T12:10:31.482Z,27.67
2022-07-26T12:13:11.545Z,27.30
2022-07-26T12:15:46.507Z,27.32
2022-07-26T12:18:30.448Z,27.65
2022-07-26T12:21:07.492Z,27.79
2022-07-26T12:23:41.564Z,28.05
2022-07-26T12:26:28.317Z,28.08
2022-07-26T12:28:55.856Z,28.21
2022-07-26T12:31:23.881Z,27.86
2022-07-26T12:33:50.616Z,27.70
2022-07-26T12:36:28.017Z,27.31
2022-07-26T12:38:57.481Z,27.55
2022-07-26T12:41:39.576Z,27.93
2022-07-26T12:44:11.515Z,28.03
2022-07-26T12:46:39.093Z,27.87
2022-07-26T12:49:05.979Z,27.97
2022-07-26T12:51:33.424Z,28.39
2022-07-26T12:54:00.158Z,28.78
2022-07-26T12:56:26.829Z,29.16
2022-07-26T12:58:54.306Z,29.57
2022-07-26T13:01:21.374Z,29.58
2022-07-26T13:03:48.190Z,29.59
2022-07-26T13:06:14.774Z,29.33
2022-07-26T13:08:41.427Z,29.25
2022-07-26T13:11:08.052Z,29.46
2022-07-26T13:13:34.681Z,29.48
2022-07-26T13:16:01.293Z,29.31
2022-07-26T13:18:27.956Z,29.11
2022-07-26T13:20:54.567Z,29.07
2022-07-26T13:23:21.571Z,28.83
2022-07-26T13:25:49.785Z,28.30
2022-07-26T13:28:17.198Z,28.49
2022-07-26T13:30:44.072Z,28.57
2022-07-26T13:33:11.592Z,28.31
2022-07-26T13:35:42.617Z,28.30
2022-07-26T13:38:09.816Z,28.70
2022-07-26T13:40:36.711Z,29.18
2022-07-26T13:43:04.399Z,29.62
2022-07-26T13:45:31.020Z,29.66
2022-07-26T13:47:58.838Z,29.41
2022-07-26T13:50:27.176Z,29.12
2022-07-26T13:52:56.221Z,29.07
2022-07-26T13:55:23.485Z,29.30
2022-07-26T13:57:57.015Z,29.57
2022-07-26T14:00:29.288Z,29.74
2022-07-26T14:02:58.335Z,29.88
2022-07-26T14:05:27.775Z,30.05
2022-07-26T14:07:55.177Z,30.12
2022-07-26T14:10:23.063Z,30.08
2022-07-26T14:12:50.021Z,30.05
2022-07-26T14:15:22.003Z,30.15
2022-07-26T14:17:50.255Z,30.12
2022-07-26T14:20:20.042Z,29.79
2022-07-26T14:22:47.497Z,29.91
2022-07-26T14:25:14.702Z,30.03
2022-07-26T14:27:41.325Z,30.14
2022-07-26T14:30:08.226Z,30.32
2022-07-26T14:32:34.974Z,30.42
2022-07-26T14:35:01.663Z,30.13
2022-07-26T14:37:41.884Z,29.82
2022-07-26T14:40:17.421Z,29.81
2022-07-26T14:42:45.384Z,30.11
2022-07-26T14:45:12.703Z,30.28
2022-07-26T14:47:40.273Z,30.59
2022-07-26T14:50:08.505Z,30.74
2022-07-26T14:52:44.755Z,30.78
2022-07-26T14:55:12.676Z,30.38
2022-07-26T14:57:40.293Z,30.08
2022-07-26T15:00:10.680Z,30.08
2022-07-26T15:02:42.754Z,30.09
2022-07-26T15:05:12.209Z,29.81
2022-07-26T15:07:40.953Z,29.37
2022-07-26T15:10:10.302Z,29.56
2022-07-26T15:12:37.378Z,29.66
2022-07-26T15:15:05.770Z,29.63
2022-07-26T15:17:32.482Z,29.50
2022-07-26T15:19:59.206Z,29.35
2022-07-26T15:22:26.544Z,29.45
2022-07-26T15:24:53.108Z,29.49
2022-07-26T15:27:19.827Z,29.70
2022-07-26T15:29:48.593Z,29.82
2022-07-26T15:32:15.274Z,29.51
2022-07-26T15:34:41.971Z,29.35
2022-07-26T15:37:09.518Z,29.45
2022-07-26T15:39:36.100Z,29.46
2022-07-26T15:42:07.429Z,29.59
2022-07-26T15:44:34.580Z,29.66
2022-07-26T15:47:01.673Z,29.76
2022-07-26T15:49:30.565Z,29.93
2022-07-26T15:51:57.215Z,30.00
2022-07-26T15:54:23.827Z,30.25
2022-07-26T15:56:50.480Z,30.01
2022-07-26T15:59:17.092Z,29.80
2022-07-26T16:01:43.733Z,29.75
2022-07-26T16:04:10.681Z,29.81
2022-07-26T16:06:37.594Z,29.90
2022-07-26T16:09:20.204Z,30.00
2022-07-26T16:11:48.691Z,30.13
2022-07-26T16:14:16.710Z,30.22
2022-07-26T16:16:43.754Z,30.20
2022-07-26T16:19:11.058Z,30.07
2022-07-26T16:21:38.323Z,30.08
2022-07-26T16:24:07.314Z,29.88
2022-07-26T16:26:35.460Z,29.74
2022-07-26T16:29:02.545Z,29.59
2022-07-26T16:31:29.530Z,29.52
2022-07-26T16:33:56.208Z,29.46
2022-07-26T16:36:22.796Z,29.17
2022-07-26T16:38:49.419Z,29.12
2022-07-26T16:41:16.033Z,29.06
2022-07-26T16:43:42.998Z,29.15
2022-07-26T16:46:09.597Z,29.10
2022-07-26T16:48:36.243Z,28.94
2022-07-26T16:51:03.139Z,28.81
2022-07-26T16:53:29.732Z,28.66
2022-07-26T16:55:56.327Z,28.62
2022-07-26T16:58:22.912Z,28.70
2022-07-26T17:00:49.674Z,28.73
2022-07-26T17:03:16.764Z,28.83
2022-07-26T17:05:44.573Z,28.83
2022-07-26T17:08:11.342Z,28.86
2022-07-26T17:10:38.187Z,29.03
2022-07-26T17:13:04.898Z,29.14
2022-07-26T17:15:31.516Z,29.21
2022-07-26T17:17:58.200Z,29.20
2022-07-26T17:20:24.842Z,29.14
2022-07-26T17:22:51.482Z,28.97
2022-07-26T17:25:18.073Z,28.74
2022-07-26T17:27:44.680Z,28.73
2022-07-26T17:30:12.133Z,28.71
2022-07-26T17:32:38.878Z,28.78
2022-07-26T17:35:06.612Z,28.88
2022-07-26T17:37:36.711Z,28.86
2022-07-26T17:40:05.248Z,28.86
2022-07-26T17:42:35.037Z,28.74
2022-07-26T17:45:01.805Z,28.62
2022-07-26T17:47:30.407Z,28.65
2022-07-26T17:50:26.144Z,28.89
2022-07-26T17:52:50.094Z,30.04
2022-07-26T17:55:19.014Z,32.02
2022-07-26T17:57:47.753Z,33.66
2022-07-26T18:00:15.537Z,34.62
2022-07-26T18:02:42.257Z,34.74
2022-07-26T18:05:09.593Z,34.21
2022-07-26T18:07:36.427Z,33.12
2022-07-26T18:10:03.960Z,31.73
2022-07-26T18:12:30.607Z,30.39
2022-07-26T18:14:57.389Z,29.22
2022-07-26T18:17:24.455Z,28.40
2022-07-26T18:19:51.043Z,27.75
2022-07-26T18:22:17.642Z,27.30
2022-07-26T18:24:44.239Z,26.86
2022-07-26T18:27:10.813Z,26.55
2022-07-26T18:29:37.468Z,26.27
2022-07-26T18:32:04.172Z,26.05
2022-07-26T18:34:30.828Z,25.80
2022-07-26T18:36:57.437Z,25.58
2022-07-26T18:39:24.019Z,25.40
2022-07-26T18:41:50.620Z,25.26
2022-07-26T18:44:17.243Z,25.09
2022-07-26T18:46:43.903Z,24.96
2022-07-26T18:49:15.757Z,24.85
2022-07-26T18:51:48.476Z,24.74
2022-07-26T18:54:16.168Z,24.65
2022-07-26T18:56:42.840Z,24.53
2022-07-26T18:59:09.912Z,24.43
2022-07-26T19:01:36.789Z,24.35
2022-07-26T19:04:06.725Z,24.29
2022-07-26T19:06:34.804Z,24.23
2022-07-26T19:09:01.533Z,24.11
2022-07-26T19:11:29.619Z,24.03
2022-07-26T19:13:56.261Z,23.94
2022-07-26T19:16:22.973Z,23.84
2022-07-26T19:18:53.866Z,23.71
2022-07-26T19:21:23.578Z,23.60
2022-07-26T19:23:50.370Z,23.52
2022-07-26T19:26:17.133Z,23.40
2022-07-26T19:28:43.758Z,23.37
2022-07-26T19:31:10.743Z,23.32
2022-07-26T19:33:37.539Z,23.27
2022-07-26T19:36:04.329Z,23.14
2022-07-26T19:38:33.018Z,23.18
2022-07-26T19:41:00.645Z,23.16
2022-07-26T19:43:27.869Z,23.04
2022-07-26T19:45:54.853Z,23.10
2022-07-26T19:48:21.554Z,23.11
2022-07-26T19:50:48.686Z,23.04
2022-07-26T19:53:15.355Z,23.05
2022-07-26T19:55:42.493Z,23.02
2022-07-26T19:58:09.430Z,22.99
2022-07-26T20:00:36.222Z,22.98
2022-07-26T20:03:03.071Z,22.97
2022-07-26T20:05:29.746Z,22.89
2022-07-26T20:07:56.572Z,22.89
2022-07-26T20:10:26.234Z,22.87
2022-07-26T20:12:55.218Z,22.84
2022-07-26T20:15:22.578Z,22.80
2022-07-26T20:17:49.193Z,22.74
2022-07-26T20:20:17.846Z,22.72
2022-07-26T20:22:44.486Z,22.68
2022-07-26T20:25:11.277Z,22.62
2022-07-26T20:27:37.967Z,22.57
2022-07-26T20:30:05.842Z,22.50
2022-07-26T20:32:32.481Z,22.48
2022-07-26T20:34:59.060Z,22.45
2022-07-26T20:37:25.852Z,22.42
2022-07-26T20:39:52.431Z,22.38
2022-07-26T20:42:21.380Z,22.32
2022-07-26T20:44:48.782Z,22.27
2022-07-26T20:47:15.580Z,22.20
2022-07-26T20:49:42.202Z,22.17
2022-07-26T20:52:08.846Z,22.13
2022-07-26T20:54:35.540Z,22.02
2022-07-26T20:57:04.399Z,21.98
2022-07-26T20:59:32.426Z,21.87
2022-07-26T21:01:59.206Z,21.84
2022-07-26T21:04:26.214Z,21.82
2022-07-26T21:06:52.991Z,21.84
2022-07-26T21:09:19.892Z,21.85
2022-07-26T21:11:46.866Z,21.84
2022-07-26T21:14:14.118Z,21.85
2022-07-26T21:16:41.054Z,21.81
2022-07-26T21:19:07.852Z,21.82
2022-07-26T21:21:36.436Z,21.72
2022-07-26T21:24:03.084Z,21.68
2022-07-26T21:26:29.827Z,21.69
2022-07-26T21:28:56.534Z,21.63
2022-07-26T21:31:23.219Z,21.65
2022-07-26T21:33:50.213Z,21.66
2022-07-26T21:36:16.771Z,21.65
2022-07-26T21:38:43.583Z,21.60
2022-07-26T21:41:10.358Z,21.57
2022-07-26T21:43:40.960Z,21.53
2022-07-26T21:46:12.212Z,21.49
2022-07-26T21:48:40.056Z,21.45
2022-07-26T21:51:06.776Z,21.40
2022-07-26T21:53:33.410Z,21.37
2022-07-26T21:55:59.991Z,21.34
2022-07-26T21:58:28.123Z,21.30
2022-07-26T22:01:06.130Z,21.24
2022-07-26T22:03:35.651Z,21.21
2022-07-26T22:06:03.196Z,21.20
2022-07-26T22:08:29.927Z,21.13
2022-07-26T22:10:56.602Z,21.15
2022-07-26T22:13:23.391Z,21.11
2022-07-26T22:15:50.156Z,21.12
2022-07-26T22:18:17.418Z,21.13
2022-07-26T22:20:44.269Z,21.15
2022-07-26T22:23:12.886Z,21.16
2022-07-26T22:25:39.830Z,21.15
2022-07-26T22:28:07.638Z,21.14
2022-07-26T22:30:34.776Z,21.12
2022-07-26T22:33:03.193Z,21.13
2022-07-26T22:35:35.019Z,21.11
2022-07-26T22:38:10.799Z,21.05
2022-07-26T22:40:39.285Z,21.01
2022-07-26T22:43:06.751Z,21.03
2022-07-26T22:45:33.821Z,21.06
2022-07-26T22:48:01.767Z,21.07
2022-07-26T22:50:28.355Z,21.08
2022-07-26T22:52:55.495Z,21.08
2022-07-26T22:55:22.151Z,21.04
2022-07-26T22:57:48.993Z,20.98
2022-07-26T23:00:17.903Z,20.92
2022-07-26T23:02:44.946Z,20.82
2022-07-26T23:05:12.634Z,20.78
2022-07-26T23:07:40.115Z,20.75
2022-07-26T23:10:11.005Z,20.76
2022-07-26T23:12:38.182Z,20.73
2022-07-26T23:15:06.070Z,20.73
2022-07-26T23:17:32.727Z,20.75
2022-07-26T23:19:59.310Z,20.74
2022-07-26T23:22:26.012Z,20.73
2022-07-26T23:24:52.629Z,20.68
2022-07-26T23:27:20.346Z,20.62
2022-07-26T23:29:48.228Z,20.60
2022-07-26T23:32:15.772Z,20.57
2022-07-26T23:34:42.765Z,20.55
2022-07-26T23:37:09.584Z,20.47
2022-07-26T23:39:36.237Z,20.54
2022-07-26T23:42:03.034Z,20.53
2022-07-26T23:44:30.719Z,20.51
2022-07-26T23:46:58.352Z,20.49
2022-07-26T23:49:25.655Z,20.46
2022-07-26T23:51:52.593Z,20.47
2022-07-26T23:54:19.219Z,20.47
2022-07-26T23:56:45.824Z,20.43
2022-07-26T23:59:13.471Z,20.40
